Wichita Mid Continent Airport
KICT : rendu visible

Aérodrome :











RETROUVEZ-NOUS SUR...

 
LOGIN :

S'inscrire | Disclaimer

   EN    FR    IT 

 









Légende :    VFR   VFR Marginal   IFR   IFR Intensif   IFR Très Intensif
Visi : 
Plafond : 
>= 8 km
>= 3000ft
5 à 8 km
1000 à 3000 ft
1500m à 5 km
500 à 1000 ft
800 à 1500m
200 à 500 ft
< 800m
< 200 ft
Symboles :   Orages  Brouillard  Fortes neiges  Fortes précipitations  Vent > 20 kt







- Altitude de l'aérodrome : 1333 ft
- Code IATA : ICT


KICT - Wichita Mid Continent

DERNIER METAR :
  • 242008Z 16016KT 10SM FEW026 SCT031 BKN110 BKN130 BKN180 25/21 A2991 RMK AO2 TSE02 OCNL LTGIC DSNT SE-NE CB DSNT SE-NE MOV NE T02500206

METARs EXPIRÉS :
  • 241953Z 17017G29KT 10SM TS FEW026 BKN035CB BKN050 BKN130 BKN180 25/21 A2992 RMK AO2 PK WND 15029/1945 RAB40E52 TSB17 SLP118 OCNL LTGIC VC SE-S TS VC SE-S MOV NE P0000 T02500206
  • 241923Z 18014G22KT 10SM TS SCT030 SCT065 BKN085CB BKN180 28/22 A2989 RMK AO2 TSB17 OCNL LTGIC VC SE-S TS VC SE-S-SW MOV NE SHRA VC SE-S-SW T02830222
  • 241853Z 19017KT 10SM FEW030 SCT075 BKN095 BKN180 29/23 A2992 RMK AO2 RAE05 TSB1759 SLP117 CB DSNT ALQDS MOV N P0000 T02890228
  • 241811Z 17016KT 10SM FEW029 BKN080 BKN120 BKN160 26/22 A2994 RMK AO2 RAE05 TSB1759 OCNL LTGICCC DSNT W-NW TS MOVD N CB DSNT NW-N MOV N P0000 T02610217
  • 241759Z 17014G26KT 8SM -TSRA SCT033 BKN070CB BKN120 BKN160 25/22 A2994 RMK AO2 LTG DSNT N AND NW TSB59 OCNL LTGICCC VC W-NW TS VC W-NW MOV N P0000 T02500217
  • 241753Z 17019G31KT 9SM -RA BKN029 BKN037 BKN080 BKN160 25/21 A2995 RMK AO2 PK WND 17031/1744 LTG DSNT N AND NW RAB41 SLP128 P0000 60000 T02500211 10294 20228 58005

TAF KICT
Valide du 24 à 18h jusqu'au 25 à 18h UTC


241732Z 2418/2518 17014KT P6SM VCTS SCT025 BKN080CB
FM242100 17014KT P6SM -SHRA VCTS BKN040CB
FM250100 15008KT P6SM -SHRA VCTS BKN040CB
FM250600 29004KT P6SM -SHRA OVC040
FM251100 VRB05KT P6SM -SHRA OVC030
FM251600 34010KT P6SM -SHRA VCTS OVC030CB
FIR KZKC / Amérique du Nord



MET'MAP, la Météo Aéronautique d'un coup d'oeil ! - Copyright ORBIFLY Décembre 2007 - Disclaimer

ORBIFLY MET'MAP TEAM :

Programmation & Développement : Alexandra Zaïnal
Conception & Développement : Baudouin d'Aumeries
Co-Programmation & Développement : Marc-Olivier Méhu
Soutien technique & logistique : Manuel Goepfert

Contact : metmap@orbifly.com




SOURCES & CREDITS :

   NOAA       Earth
Advisory